createdAt,value
2017-09-20T00:00:07.312Z,0
2017-09-20T00:01:07.326Z,0
2017-09-20T00:02:07.293Z,0
2017-09-20T00:03:07.291Z,0
2017-09-20T00:04:07.583Z,0
2017-09-20T00:05:07.604Z,0
2017-09-20T00:06:07.244Z,0
2017-09-20T00:07:06.903Z,0
2017-09-20T00:08:07.228Z,0
2017-09-20T00:09:06.893Z,0
2017-09-20T00:10:07.205Z,0
2017-09-20T00:11:07.531Z,0
2017-09-20T00:12:07.202Z,0
2017-09-20T00:13:06.837Z,0
2017-09-20T00:14:07.493Z,0
2017-09-20T00:15:06.818Z,0
2017-09-20T00:16:07.158Z,0
2017-09-20T00:17:07.470Z,0
2017-09-20T00:18:06.788Z,0
2017-09-20T00:19:06.800Z,0
2017-09-20T00:20:07.454Z,0
2017-09-20T00:21:07.089Z,0
2017-09-20T00:22:07.075Z,0
2017-09-20T00:23:06.737Z,0
2017-09-20T00:24:06.726Z,0
2017-09-20T00:25:07.053Z,0
2017-09-20T00:26:07.034Z,0
2017-09-20T00:27:06.698Z,0
2017-09-20T00:28:07.013Z,0
2017-09-20T00:29:07.340Z,0
2017-09-20T00:30:06.992Z,0
2017-09-20T00:31:06.993Z,0
2017-09-20T00:32:06.976Z,0
2017-09-20T00:33:07.304Z,0
2017-09-20T00:34:06.955Z,0
2017-09-20T00:35:06.953Z,0
2017-09-20T00:36:07.287Z,0
2017-09-20T00:37:07.578Z,0
2017-09-20T00:38:07.242Z,0
2017-09-20T00:39:06.938Z,0
2017-09-20T00:40:06.893Z,0
2017-09-20T00:41:06.570Z,0
2017-09-20T00:42:06.543Z,0
2017-09-20T00:43:06.527Z,0
2017-09-20T00:44:06.860Z,0
2017-09-20T00:45:06.518Z,0
2017-09-20T00:46:07.201Z,0
2017-09-20T00:47:06.837Z,0
2017-09-20T00:48:06.483Z,0
2017-09-20T00:49:07.121Z,0
2017-09-20T00:50:07.133Z,0
2017-09-20T00:51:06.800Z,0
2017-09-20T00:52:06.764Z,0
2017-09-20T00:53:06.752Z,0
2017-09-20T00:54:06.416Z,0
2017-09-20T00:55:07.063Z,0
2017-09-20T00:56:06.399Z,0
2017-09-20T00:57:06.387Z,0
2017-09-20T00:58:06.400Z,0
2017-09-20T00:59:06.710Z,0
2017-09-20T01:00:06.362Z,0
2017-09-20T01:01:06.352Z,0
2017-09-20T01:02:06.670Z,0
2017-09-20T01:03:06.991Z,0
2017-09-20T01:04:06.664Z,0
2017-09-20T01:05:06.991Z,0
2017-09-20T01:06:06.637Z,0
2017-09-20T01:07:06.614Z,0
2017-09-20T01:08:06.290Z,0
2017-09-20T01:09:06.645Z,0
2017-09-20T01:10:06.582Z,0
2017-09-20T01:11:06.240Z,0
2017-09-20T01:12:06.560Z,0
2017-09-20T01:13:06.562Z,0
2017-09-20T01:14:06.215Z,0
2017-09-20T01:15:06.226Z,0
2017-09-20T01:16:06.522Z,0
2017-09-20T01:17:06.531Z,0
2017-09-20T01:18:06.542Z,0
2017-09-20T01:19:07.181Z,0
2017-09-20T01:20:06.808Z,0
2017-09-20T01:21:06.810Z,0
2017-09-20T01:22:06.812Z,0
2017-09-20T01:23:06.505Z,0
2017-09-20T01:24:06.776Z,0
2017-09-20T01:25:06.430Z,0
2017-09-20T01:26:06.748Z,0
2017-09-20T01:27:06.433Z,0
2017-09-20T01:28:06.067Z,0
2017-09-20T01:29:06.061Z,0
2017-09-20T01:30:06.386Z,0
2017-09-20T01:31:06.369Z,0
2017-09-20T01:32:06.358Z,0
2017-09-20T01:33:06.023Z,0
2017-09-20T01:34:06.675Z,0
2017-09-20T01:35:06.660Z,0
2017-09-20T01:36:06.316Z,0
2017-09-20T01:37:06.307Z,0
2017-09-20T01:38:06.290Z,0
2017-09-20T01:39:06.282Z,0
2017-09-20T01:40:06.606Z,0
2017-09-20T01:41:06.590Z,0
2017-09-20T01:42:06.250Z,0
2017-09-20T01:43:06.240Z,0
2017-09-20T01:44:05.901Z,0
2017-09-20T01:45:06.221Z,0
2017-09-20T01:46:06.216Z,0
2017-09-20T01:47:06.218Z,0
2017-09-20T01:48:06.194Z,0
2017-09-20T01:49:05.856Z,0
2017-09-20T01:50:05.842Z,0
2017-09-20T01:51:06.505Z,0
2017-09-20T01:52:06.169Z,0
2017-09-20T01:53:06.483Z,0
2017-09-20T01:54:05.801Z,0
2017-09-20T01:55:05.795Z,0
2017-09-20T01:56:06.112Z,0
2017-09-20T01:57:06.102Z,0
2017-09-20T01:58:05.767Z,0
2017-09-20T01:59:05.752Z,0
2017-09-20T02:00:05.742Z,0
2017-09-20T02:01:06.106Z,0
2017-09-20T02:02:06.046Z,0
2017-09-20T02:03:06.043Z,0
2017-09-20T02:04:06.036Z,0
2017-09-20T02:05:06.346Z,0
2017-09-20T02:06:06.022Z,0
2017-09-20T02:07:06.326Z,0
2017-09-20T02:08:06.018Z,0
2017-09-20T02:09:06.331Z,0
2017-09-20T02:10:05.651Z,0
2017-09-20T02:11:05.679Z,0
2017-09-20T02:12:06.334Z,0
2017-09-20T02:13:05.644Z,0
2017-09-20T02:14:06.297Z,0
2017-09-20T02:15:05.627Z,0
2017-09-20T02:16:05.925Z,0
2017-09-20T02:17:06.249Z,0
2017-09-20T02:18:05.954Z,0
2017-09-20T02:19:05.977Z,0
2017-09-20T02:20:05.877Z,0
2017-09-20T02:21:05.537Z,0
2017-09-20T02:22:05.515Z,0
2017-09-20T02:23:06.181Z,0
2017-09-20T02:24:06.153Z,0
2017-09-20T02:25:05.839Z,0
2017-09-20T02:26:05.493Z,0
2017-09-20T02:27:06.133Z,0
2017-09-20T02:28:05.808Z,0
2017-09-20T02:29:05.776Z,0
2017-09-20T02:30:05.445Z,0
2017-09-20T02:31:05.767Z,0
2017-09-20T02:32:05.746Z,0
2017-09-20T02:33:06.100Z,0
2017-09-20T02:34:05.758Z,0
2017-09-20T02:35:05.719Z,0
2017-09-20T02:36:05.383Z,0
2017-09-20T02:37:05.366Z,0
2017-09-20T02:38:05.718Z,0
2017-09-20T02:39:05.688Z,0
2017-09-20T02:40:05.667Z,0
2017-09-20T02:41:05.983Z,0
2017-09-20T02:42:05.651Z,0
2017-09-20T02:43:05.994Z,0
2017-09-20T02:44:05.296Z,0
2017-09-20T02:45:05.977Z,0
2017-09-20T02:46:05.621Z,0
2017-09-20T02:47:06.286Z,0
2017-09-20T02:48:05.589Z,0
2017-09-20T02:49:05.575Z,0
2017-09-20T02:50:05.262Z,0
2017-09-20T02:51:05.582Z,0
2017-09-20T02:52:05.881Z,0
2017-09-20T02:53:05.863Z,0
2017-09-20T02:54:05.541Z,0
2017-09-20T02:55:05.206Z,0
2017-09-20T02:56:05.198Z,0
2017-09-20T02:57:05.502Z,0
2017-09-20T02:58:05.485Z,0
2017-09-20T02:59:05.818Z,0
2017-09-20T03:00:05.138Z,0
2017-09-20T03:01:05.132Z,0
2017-09-20T03:02:05.447Z,0
2017-09-20T03:03:05.769Z,0
2017-09-20T03:04:05.106Z,0
2017-09-20T03:05:05.425Z,0
2017-09-20T03:06:05.735Z,0
2017-09-20T03:07:06.061Z,0
2017-09-20T03:08:05.713Z,0
2017-09-20T03:09:05.376Z,0
2017-09-20T03:10:05.705Z,0
2017-09-20T03:11:05.354Z,0
2017-09-20T03:12:05.344Z,0
2017-09-20T03:13:05.006Z,0
2017-09-20T03:14:05.670Z,0
2017-09-20T03:15:05.333Z,0
2017-09-20T03:16:05.630Z,0
2017-09-20T03:17:05.633Z,0
2017-09-20T03:18:05.309Z,0
2017-09-20T03:19:05.293Z,0
2017-09-20T03:20:05.285Z,0
2017-09-20T03:21:05.267Z,0
2017-09-20T03:22:05.244Z,0
2017-09-20T03:23:05.231Z,0
2017-09-20T03:24:05.237Z,0
2017-09-20T03:25:05.546Z,0
2017-09-20T03:26:05.225Z,0
2017-09-20T03:27:05.518Z,0
2017-09-20T03:28:05.192Z,0
2017-09-20T03:29:04.849Z,0
2017-09-20T03:30:04.835Z,0
2017-09-20T03:31:05.190Z,0
2017-09-20T03:32:05.145Z,0
2017-09-20T03:33:05.148Z,0
2017-09-20T03:34:05.149Z,0
2017-09-20T03:35:05.113Z,0
2017-09-20T03:36:05.437Z,0
2017-09-20T03:37:05.104Z,0
2017-09-20T03:38:05.420Z,0
2017-09-20T03:39:04.748Z,0
2017-09-20T03:40:04.744Z,0
2017-09-20T03:41:05.083Z,0
2017-09-20T03:42:05.378Z,0
2017-09-20T03:43:04.713Z,0
2017-09-20T03:44:05.379Z,0
2017-09-20T03:45:05.208Z,0
2017-09-20T03:46:04.689Z,0
2017-09-20T03:47:04.996Z,0
2017-09-20T03:48:04.998Z,0
2017-09-20T03:49:04.982Z,0
2017-09-20T03:50:04.666Z,0
2017-09-20T03:51:04.980Z,0
2017-09-20T03:52:04.953Z,0
2017-09-20T03:53:04.944Z,0
2017-09-20T03:54:04.603Z,0
2017-09-20T03:55:05.620Z,0
2017-09-20T03:56:04.936Z,0
2017-09-20T03:57:04.918Z,0
2017-09-20T03:58:04.903Z,0
2017-09-20T03:59:05.309Z,0
2017-09-20T04:00:04.891Z,0
2017-09-20T04:01:04.537Z,0
2017-09-20T04:02:04.542Z,0
2017-09-20T04:03:04.844Z,0
2017-09-20T04:04:05.185Z,0
2017-09-20T04:05:04.822Z,0
2017-09-20T04:06:04.841Z,0
2017-09-20T04:07:04.503Z,0
2017-09-20T04:08:04.788Z,0
2017-09-20T04:09:04.803Z,0
2017-09-20T04:10:04.465Z,0
2017-09-20T04:11:05.087Z,0
2017-09-20T04:12:05.080Z,0
2017-09-20T04:13:04.470Z,0
2017-09-20T04:14:04.421Z,0
2017-09-20T04:15:05.042Z,0
2017-09-20T04:16:04.706Z,0
2017-09-20T04:17:04.697Z,0
2017-09-20T04:18:04.687Z,0
2017-09-20T04:19:04.677Z,0
2017-09-20T04:20:04.697Z,0
2017-09-20T04:21:04.343Z,0
2017-09-20T04:22:05.355Z,0
2017-09-20T04:23:04.667Z,0
2017-09-20T04:24:04.296Z,0
2017-09-20T04:25:04.965Z,0
2017-09-20T04:26:04.954Z,0
2017-09-20T04:27:04.928Z,0
2017-09-20T04:28:04.941Z,0
2017-09-20T04:29:04.902Z,0
2017-09-20T04:30:04.570Z,0
2017-09-20T04:31:04.568Z,4
2017-09-20T04:32:04.215Z,4
2017-09-20T04:33:04.571Z,4
2017-09-20T04:34:04.527Z,0
2017-09-20T04:35:04.532Z,4
2017-09-20T04:36:05.211Z,8
2017-09-20T04:37:04.495Z,4
2017-09-20T04:38:04.483Z,8
2017-09-20T04:39:04.142Z,4
2017-09-20T04:40:04.807Z,8
2017-09-20T04:41:04.452Z,8
2017-09-20T04:42:04.467Z,12
2017-09-20T04:43:04.116Z,12
2017-09-20T04:44:04.107Z,16
2017-09-20T04:45:04.419Z,16
2017-09-20T04:46:04.406Z,20
2017-09-20T04:47:04.389Z,16
2017-09-20T04:48:04.048Z,20
2017-09-20T04:49:04.697Z,28
2017-09-20T04:50:04.356Z,28
2017-09-20T04:51:04.675Z,32
2017-09-20T04:52:04.006Z,40
2017-09-20T04:53:04.349Z,40
2017-09-20T04:54:04.667Z,48
2017-09-20T04:55:04.992Z,56
2017-09-20T04:56:04.326Z,72
2017-09-20T04:57:04.312Z,72
2017-09-20T04:58:03.945Z,80
2017-09-20T04:59:04.262Z,92
2017-09-20T05:00:03.948Z,96
2017-09-20T05:01:03.917Z,100
2017-09-20T05:02:04.272Z,124
2017-09-20T05:03:04.553Z,140
2017-09-20T05:04:04.212Z,164
2017-09-20T05:05:03.875Z,176
2017-09-20T05:06:04.205Z,184
2017-09-20T05:07:04.518Z,200
2017-09-20T05:08:04.501Z,228
2017-09-20T05:09:04.174Z,236
2017-09-20T05:10:03.823Z,236
2017-09-20T05:11:04.171Z,240
2017-09-20T05:12:04.553Z,268
2017-09-20T05:13:04.152Z,296
2017-09-20T05:14:04.119Z,316
2017-09-20T05:15:04.116Z,356
2017-09-20T05:16:03.759Z,420
2017-09-20T05:17:04.080Z,388
2017-09-20T05:18:03.738Z,352
2017-09-20T05:19:03.728Z,332
2017-09-20T05:20:03.720Z,280
2017-09-20T05:21:03.743Z,244
2017-09-20T05:22:04.026Z,264
2017-09-20T05:23:03.686Z,304
2017-09-20T05:24:04.006Z,368
2017-09-20T05:25:04.693Z,436
2017-09-20T05:26:03.658Z,504
2017-09-20T05:27:03.976Z,564
2017-09-20T05:28:04.315Z,584
2017-09-20T05:29:03.971Z,580
2017-09-20T05:30:03.946Z,584
2017-09-20T05:31:03.948Z,572
2017-09-20T05:32:03.937Z,596
2017-09-20T05:33:03.593Z,624
2017-09-20T05:34:03.599Z,592
2017-09-20T05:35:03.885Z,548
2017-09-20T05:36:03.897Z,484
2017-09-20T05:37:03.577Z,416
2017-09-20T05:38:04.204Z,388
2017-09-20T05:39:04.184Z,380
2017-09-20T05:40:03.847Z,364
2017-09-20T05:41:04.159Z,396
2017-09-20T05:42:03.847Z,476
2017-09-20T05:43:04.143Z,596
2017-09-20T05:44:03.799Z,740
2017-09-20T05:45:03.811Z,824
2017-09-20T05:46:03.794Z,864
2017-09-20T05:47:03.771Z,1004
2017-09-20T05:48:03.795Z,1024
2017-09-20T05:49:03.418Z,972
2017-09-20T05:50:04.064Z,944
2017-09-20T05:51:03.723Z,1000
2017-09-20T05:52:04.045Z,924
2017-09-20T05:53:03.706Z,1068
2017-09-20T05:54:03.365Z,1444
2017-09-20T05:55:04.082Z,1784
2017-09-20T05:56:03.677Z,2040
2017-09-20T05:57:03.665Z,1980
2017-09-20T05:58:03.675Z,1796
2017-09-20T05:59:04.356Z,1568
2017-09-20T06:00:03.653Z,1400
2017-09-20T06:01:03.292Z,1604
2017-09-20T06:02:03.287Z,1624
2017-09-20T06:03:03.613Z,1348
2017-09-20T06:04:03.591Z,1168
2017-09-20T06:05:03.992Z,992
2017-09-20T06:06:03.612Z,1024
2017-09-20T06:07:04.223Z,1460
2017-09-20T06:08:03.228Z,1964
2017-09-20T06:09:03.594Z,1924
2017-09-20T06:10:03.205Z,2352
2017-09-20T06:11:03.222Z,2412
2017-09-20T06:12:03.512Z,2368
2017-09-20T06:13:03.523Z,2452
2017-09-20T06:14:03.493Z,2428
2017-09-20T06:15:03.145Z,2316
2017-09-20T06:16:03.143Z,1924
2017-09-20T06:17:03.915Z,1900
2017-09-20T06:18:03.170Z,1896
2017-09-20T06:19:03.109Z,1856
2017-09-20T06:20:03.207Z,1756
2017-09-20T06:21:03.743Z,1708
2017-09-20T06:22:03.756Z,1984
2017-09-20T06:23:03.750Z,2448
2017-09-20T06:24:03.387Z,2808
2017-09-20T06:25:03.047Z,2860
2017-09-20T06:26:03.701Z,2892
2017-09-20T06:27:03.694Z,3044
2017-09-20T06:28:03.673Z,3160
2017-09-20T06:29:03.670Z,3304
2017-09-20T06:30:03.323Z,3416
2017-09-20T06:31:02.990Z,3580
2017-09-20T06:32:03.345Z,3816
2017-09-20T06:33:03.301Z,4016
2017-09-20T06:34:02.960Z,4252
2017-09-20T06:35:03.619Z,4460
2017-09-20T06:36:03.596Z,4484
2017-09-20T06:37:03.272Z,4252
2017-09-20T06:38:02.916Z,3916
2017-09-20T06:39:02.910Z,3580
2017-09-20T06:40:03.225Z,3408
2017-09-20T06:41:03.214Z,3408
2017-09-20T06:42:03.231Z,3644
2017-09-20T06:43:02.885Z,4072
2017-09-20T06:44:02.862Z,4612
2017-09-20T06:45:03.529Z,5024
2017-09-20T06:46:03.168Z,5084
2017-09-20T06:47:03.161Z,5112
2017-09-20T06:48:03.168Z,5036
2017-09-20T06:49:03.169Z,4868
2017-09-20T06:50:02.809Z,4532
2017-09-20T06:51:02.796Z,4040
2017-09-20T06:52:03.112Z,3936
2017-09-20T06:53:03.102Z,4340
2017-09-20T06:54:03.117Z,4472
2017-09-20T06:55:02.759Z,4068
2017-09-20T06:56:03.078Z,3524
2017-09-20T06:57:03.406Z,3084
2017-09-20T06:58:03.422Z,2840
2017-09-20T06:59:02.725Z,2732
2017-09-20T07:00:03.043Z,2828
2017-09-20T07:01:03.383Z,2948
2017-09-20T07:02:03.024Z,3196
2017-09-20T07:03:03.010Z,3636
2017-09-20T07:04:02.680Z,3908
2017-09-20T07:05:03.345Z,4044
2017-09-20T07:06:03.329Z,4216
2017-09-20T07:07:03.320Z,4064
2017-09-20T07:08:03.298Z,4264
2017-09-20T07:09:03.316Z,5024
2017-09-20T07:10:02.647Z,5564
2017-09-20T07:11:02.942Z,5800
2017-09-20T07:12:02.936Z,5944
2017-09-20T07:13:02.952Z,5960
2017-09-20T07:14:03.570Z,5904
2017-09-20T07:15:02.912Z,5756
2017-09-20T07:16:02.592Z,5436
2017-09-20T07:17:02.909Z,5052
2017-09-20T07:18:02.890Z,4676
2017-09-20T07:19:03.203Z,4728
2017-09-20T07:20:02.887Z,5012
2017-09-20T07:21:02.854Z,5320
2017-09-20T07:22:02.524Z,5544
2017-09-20T07:23:02.850Z,5772
2017-09-20T07:24:02.516Z,6128
2017-09-20T07:25:02.837Z,6440
2017-09-20T07:26:02.840Z,6528
2017-09-20T07:27:03.132Z,6452
2017-09-20T07:28:02.468Z,6408
2017-09-20T07:29:03.463Z,6084
2017-09-20T07:30:03.122Z,6364
2017-09-20T07:31:02.474Z,7036
2017-09-20T07:32:03.103Z,7448
2017-09-20T07:33:02.436Z,7748
2017-09-20T07:34:02.420Z,7856
2017-09-20T07:35:03.068Z,7920
2017-09-20T07:36:02.729Z,7952
2017-09-20T07:37:02.392Z,7940
2017-09-20T07:38:02.414Z,7908
2017-09-20T07:39:02.709Z,7912
2017-09-20T07:40:02.698Z,7912
2017-09-20T07:41:02.689Z,8088
2017-09-20T07:42:02.685Z,8280
2017-09-20T07:43:02.368Z,8468
2017-09-20T07:44:02.342Z,8580
2017-09-20T07:45:02.349Z,8612
2017-09-20T07:46:03.031Z,8548
2017-09-20T07:47:02.966Z,8464
2017-09-20T07:48:02.302Z,8324
2017-09-20T07:49:02.685Z,8264
2017-09-20T07:50:02.288Z,8304
2017-09-20T07:51:02.614Z,8420
2017-09-20T07:52:02.600Z,8564
2017-09-20T07:53:02.948Z,8676
2017-09-20T07:54:02.256Z,8732
2017-09-20T07:55:02.577Z,8916
2017-09-20T07:56:02.245Z,9056
2017-09-20T07:57:02.906Z,9176
2017-09-20T07:58:02.222Z,9256
2017-09-20T07:59:02.245Z,9332
2017-09-20T08:00:02.862Z,9368
2017-09-20T08:01:02.552Z,9580
2017-09-20T08:02:02.548Z,9852
2017-09-20T08:03:02.842Z,9868
2017-09-20T08:04:02.505Z,9416
2017-09-20T08:05:02.823Z,9340
2017-09-20T08:06:02.497Z,9264
2017-09-20T08:07:02.480Z,9324
2017-09-20T08:08:02.472Z,9076
2017-09-20T08:09:02.482Z,8728
2017-09-20T08:10:03.117Z,8324
2017-09-20T08:11:02.120Z,8284
2017-09-20T08:12:02.117Z,8436
2017-09-20T08:13:02.444Z,9168
2017-09-20T08:14:02.100Z,9236
2017-09-20T08:15:02.434Z,8432
2017-09-20T08:16:02.430Z,7088
2017-09-20T08:17:02.072Z,5492
2017-09-20T08:18:02.747Z,4960
2017-09-20T08:19:02.058Z,5008
2017-09-20T08:20:02.582Z,5064
2017-09-20T08:21:02.076Z,6148
2017-09-20T08:22:02.363Z,8504
2017-09-20T08:23:02.357Z,10624
2017-09-20T08:24:02.366Z,12092
2017-09-20T08:25:02.678Z,13580
2017-09-20T08:26:02.687Z,15104
2017-09-20T08:27:01.998Z,16928
2017-09-20T08:28:02.319Z,18272
2017-09-20T08:29:02.002Z,18784
2017-09-20T08:30:01.973Z,18432
2017-09-20T08:31:02.671Z,17344
2017-09-20T08:32:02.285Z,15968
2017-09-20T08:33:01.950Z,14704
2017-09-20T08:34:02.292Z,12912
2017-09-20T08:35:02.262Z,10832
2017-09-20T08:36:02.259Z,9252
2017-09-20T08:37:02.251Z,8120
2017-09-20T08:38:02.249Z,7456
2017-09-20T08:39:01.910Z,7228
2017-09-20T08:40:02.885Z,6828
2017-09-20T08:41:01.902Z,6576
2017-09-20T08:42:01.905Z,6580
2017-09-20T08:43:01.881Z,6120
2017-09-20T08:44:01.883Z,5192
2017-09-20T08:45:02.218Z,4348
2017-09-20T08:46:02.201Z,3768
2017-09-20T08:47:01.856Z,3132
2017-09-20T08:48:02.500Z,2344
2017-09-20T08:49:02.499Z,1800
2017-09-20T08:50:02.533Z,1524
2017-09-20T08:51:02.154Z,1480
2017-09-20T08:52:02.151Z,1456
2017-09-20T08:53:01.832Z,1224
2017-09-20T08:54:01.839Z,1196
2017-09-20T08:55:01.814Z,1896
2017-09-20T08:56:02.475Z,3716
2017-09-20T08:57:01.781Z,6104
2017-09-20T08:58:01.776Z,7964
2017-09-20T08:59:02.097Z,9332
2017-09-20T09:00:01.772Z,10504
2017-09-20T09:01:02.081Z,11152
2017-09-20T09:02:02.070Z,10912
2017-09-20T09:03:02.060Z,9204
2017-09-20T09:04:01.733Z,7440
2017-09-20T09:05:01.720Z,5564
2017-09-20T09:06:01.712Z,4576
2017-09-20T09:07:01.728Z,4920
2017-09-20T09:08:02.026Z,5692
2017-09-20T09:09:01.710Z,5948
2017-09-20T09:10:02.015Z,5688
2017-09-20T09:11:02.006Z,6096
2017-09-20T09:12:01.665Z,6996
2017-09-20T09:13:02.344Z,8392
2017-09-20T09:14:01.980Z,8488
2017-09-20T09:15:02.631Z,6664
2017-09-20T09:16:02.001Z,5320
2017-09-20T09:17:01.981Z,5152
2017-09-20T09:18:01.987Z,4844
2017-09-20T09:19:02.631Z,4172
2017-09-20T09:20:02.583Z,3832
2017-09-20T09:21:01.924Z,3184
2017-09-20T09:22:02.115Z,2664
2017-09-20T09:23:01.909Z,2440
2017-09-20T09:24:01.571Z,2452
2017-09-20T09:25:01.578Z,2480
2017-09-20T09:26:01.881Z,2592
2017-09-20T09:27:02.212Z,2756
2017-09-20T09:28:01.535Z,2996
2017-09-20T09:29:02.202Z,3292
2017-09-20T09:30:01.517Z,3472
2017-09-20T09:31:01.866Z,3664
2017-09-20T09:32:01.844Z,3844
2017-09-20T09:33:01.503Z,3996
2017-09-20T09:34:01.810Z,4184
2017-09-20T09:35:02.148Z,4472
2017-09-20T09:36:01.484Z,4768
2017-09-20T09:37:01.457Z,4932
2017-09-20T09:38:02.143Z,4852
2017-09-20T09:39:01.439Z,4896
2017-09-20T09:40:01.811Z,4772
2017-09-20T09:41:01.764Z,4644
2017-09-20T09:42:01.744Z,4540
2017-09-20T09:43:01.775Z,4484
2017-09-20T09:44:02.418Z,4540
2017-09-20T09:45:01.739Z,4700
2017-09-20T09:46:01.714Z,4856
2017-09-20T09:47:02.367Z,5004
2017-09-20T09:48:02.039Z,5244
2017-09-20T09:49:01.364Z,5536
2017-09-20T09:50:01.356Z,5744
2017-09-20T09:51:01.997Z,5884
2017-09-20T09:52:01.321Z,5964
2017-09-20T09:53:01.639Z,5832
2017-09-20T09:54:01.302Z,5556
2017-09-20T09:55:01.948Z,5376
2017-09-20T09:56:01.298Z,5400
2017-09-20T09:57:01.604Z,5328
2017-09-20T09:58:01.937Z,5276
2017-09-20T09:59:01.260Z,5484
2017-09-20T10:00:01.591Z,5940
2017-09-20T10:01:02.237Z,6420
2017-09-20T10:02:01.883Z,6828
2017-09-20T10:03:02.216Z,7188
2017-09-20T10:04:01.557Z,7560
2017-09-20T10:05:01.205Z,7876
2017-09-20T10:06:01.531Z,8024
2017-09-20T10:07:01.193Z,8224
2017-09-20T10:08:01.503Z,8472
2017-09-20T10:09:01.839Z,8888
2017-09-20T10:10:01.176Z,9544
2017-09-20T10:11:01.497Z,10528
2017-09-20T10:12:02.136Z,11460
2017-09-20T10:13:01.132Z,12248
2017-09-20T10:14:01.142Z,12612
2017-09-20T10:15:01.772Z,12600
2017-09-20T10:16:01.137Z,12420
2017-09-20T10:17:02.092Z,11876
2017-09-20T10:18:02.079Z,11040
2017-09-20T10:19:01.413Z,10352
2017-09-20T10:20:01.085Z,9920
2017-09-20T10:21:01.072Z,9496
2017-09-20T10:22:01.060Z,9336
2017-09-20T10:23:01.051Z,9604
2017-09-20T10:24:01.385Z,10096
2017-09-20T10:25:01.377Z,10492
2017-09-20T10:26:01.024Z,10760
2017-09-20T10:27:01.045Z,11092
2017-09-20T10:28:01.345Z,11560
2017-09-20T10:29:01.686Z,12336
2017-09-20T10:30:00.994Z,13060
2017-09-20T10:31:01.004Z,13544
2017-09-20T10:32:01.318Z,13900
2017-09-20T10:33:01.336Z,13760
2017-09-20T10:34:01.354Z,13412
2017-09-20T10:35:00.986Z,13632
2017-09-20T10:36:00.957Z,13896
2017-09-20T10:37:00.940Z,13648
2017-09-20T10:38:01.308Z,13096
2017-09-20T10:39:01.597Z,12676
2017-09-20T10:40:01.272Z,11864
2017-09-20T10:41:00.926Z,11160
2017-09-20T10:42:01.231Z,10344
2017-09-20T10:43:01.902Z,10096
2017-09-20T10:44:00.892Z,9680
2017-09-20T10:45:01.569Z,9812
2017-09-20T10:46:01.204Z,10340
2017-09-20T10:47:01.208Z,10164
2017-09-20T10:48:01.523Z,9864
2017-09-20T10:49:01.204Z,9540
2017-09-20T10:50:01.207Z,10020
2017-09-20T10:51:01.218Z,10104
2017-09-20T10:52:01.183Z,9312
2017-09-20T10:53:01.155Z,8592
2017-09-20T10:54:00.821Z,8324
2017-09-20T10:55:00.813Z,9188
2017-09-20T10:56:01.793Z,10060
2017-09-20T10:57:01.142Z,10684
2017-09-20T10:58:00.816Z,11084
2017-09-20T10:59:01.444Z,11964
2017-09-20T11:00:01.111Z,12500
2017-09-20T11:01:00.776Z,12192
2017-09-20T11:02:00.769Z,11744
2017-09-20T11:03:01.089Z,11660
2017-09-20T11:04:01.412Z,11684
2017-09-20T11:05:01.415Z,11260
2017-09-20T11:06:01.076Z,11208
2017-09-20T11:07:00.736Z,10888
2017-09-20T11:08:01.124Z,10676
2017-09-20T11:09:01.215Z,11052
2017-09-20T11:10:00.758Z,11144
2017-09-20T11:11:01.532Z,10096
2017-09-20T11:12:01.053Z,9368
2017-09-20T11:13:01.396Z,9280
2017-09-20T11:14:01.022Z,9780
2017-09-20T11:15:00.706Z,9432
2017-09-20T11:16:01.010Z,8864
2017-09-20T11:17:01.332Z,9720
2017-09-20T11:18:01.031Z,9560
2017-09-20T11:19:01.344Z,7868
2017-09-20T11:20:00.983Z,6408
2017-09-20T11:21:00.648Z,5108
2017-09-20T11:22:00.971Z,4476
2017-09-20T11:23:00.653Z,4500
2017-09-20T11:24:00.969Z,4624
2017-09-20T11:25:00.976Z,4124
2017-09-20T11:26:00.944Z,3956
2017-09-20T11:27:01.313Z,4196
2017-09-20T11:28:00.945Z,4460
2017-09-20T11:29:00.973Z,4688
2017-09-20T11:30:00.611Z,5148
2017-09-20T11:31:00.948Z,5688
2017-09-20T11:32:00.911Z,7088
2017-09-20T11:33:00.917Z,8644
2017-09-20T11:34:01.242Z,9880
2017-09-20T11:35:00.896Z,10488
2017-09-20T11:36:01.209Z,7952
2017-09-20T11:37:00.567Z,6612
2017-09-20T11:38:00.879Z,5660
2017-09-20T11:39:00.868Z,6204
2017-09-20T11:40:00.530Z,6404
2017-09-20T11:41:00.862Z,6600
2017-09-20T11:42:00.845Z,6412
2017-09-20T11:43:00.525Z,5716
2017-09-20T11:44:00.852Z,5156
2017-09-20T11:45:00.496Z,4640
2017-09-20T11:46:01.152Z,4564
2017-09-20T11:47:00.832Z,3932
2017-09-20T11:48:01.136Z,3916
2017-09-20T11:49:00.798Z,3920
2017-09-20T11:50:00.816Z,3884
2017-09-20T11:51:01.117Z,3488
2017-09-20T11:52:00.783Z,3052
2017-09-20T11:53:00.467Z,2804
2017-09-20T11:54:00.784Z,2624
2017-09-20T11:55:00.440Z,2592
2017-09-20T11:56:01.473Z,2668
2017-09-20T11:57:01.162Z,2840
2017-09-20T11:58:01.071Z,2984
2017-09-20T11:59:00.733Z,3220
2017-09-20T12:00:00.734Z,3268
2017-09-20T12:01:00.724Z,3088
2017-09-20T12:02:00.718Z,3000
2017-09-20T12:03:01.048Z,3024
2017-09-20T12:04:00.702Z,3112
2017-09-20T12:05:00.699Z,3244
2017-09-20T12:06:01.011Z,3368
2017-09-20T12:07:01.006Z,3492
2017-09-20T12:08:00.365Z,3748
2017-09-20T12:09:00.693Z,4112
2017-09-20T12:10:00.664Z,4500
2017-09-20T12:11:01.001Z,4968
2017-09-20T12:12:00.645Z,5344
2017-09-20T12:13:01.018Z,5920
2017-09-20T12:14:00.960Z,6320
2017-09-20T12:15:00.644Z,7336
2017-09-20T12:16:00.332Z,7900
2017-09-20T12:17:00.281Z,8312
2017-09-20T12:18:00.934Z,8844
2017-09-20T12:19:00.614Z,8468
2017-09-20T12:20:00.916Z,8144
2017-09-20T12:21:00.624Z,7496
2017-09-20T12:22:00.248Z,7140
2017-09-20T12:23:00.637Z,7532
2017-09-20T12:24:00.234Z,8100
2017-09-20T12:25:00.583Z,8828
2017-09-20T12:26:00.882Z,9148
2017-09-20T12:27:00.568Z,8916
2017-09-20T12:28:00.557Z,8964
2017-09-20T12:29:00.574Z,9720
2017-09-20T12:30:00.886Z,10184
2017-09-20T12:31:00.533Z,10272
2017-09-20T12:32:00.191Z,10008
2017-09-20T12:33:00.508Z,9952
2017-09-20T12:34:00.169Z,9732
2017-09-20T12:35:00.525Z,9124
2017-09-20T12:36:00.490Z,8972
2017-09-20T12:37:00.475Z,8504
2017-09-20T12:38:00.807Z,8188
2017-09-20T12:39:00.476Z,7632
2017-09-20T12:40:00.149Z,6964
2017-09-20T12:41:00.454Z,6360
2017-09-20T12:42:00.132Z,5772
2017-09-20T12:43:00.131Z,5344
2017-09-20T12:44:00.451Z,5100
2017-09-20T12:45:00.423Z,4800
2017-09-20T12:46:00.766Z,4640
2017-09-20T12:47:00.089Z,4572
2017-09-20T12:48:00.738Z,4572
2017-09-20T12:49:00.412Z,4588
2017-09-20T12:50:00.091Z,4640
2017-09-20T12:51:00.072Z,4704
2017-09-20T12:52:00.752Z,4788
2017-09-20T12:53:00.069Z,4824
2017-09-20T12:54:00.380Z,4820
2017-09-20T12:55:00.084Z,4716
2017-09-20T12:56:00.057Z,4648
2017-09-20T12:57:00.357Z,4648
2017-09-20T12:58:00.028Z,4720
2017-09-20T12:59:01.022Z,4928
2017-09-20T13:00:00.344Z,5352
2017-09-20T13:01:00.665Z,5652
2017-09-20T13:02:00.000Z,5528
2017-09-20T13:03:00.332Z,5180
2017-09-20T13:04:00.316Z,5068
2017-09-20T13:05:00.655Z,4888
2017-09-20T13:06:00.651Z,4592
2017-09-20T13:06:59.995Z,4220
2017-09-20T13:07:59.999Z,4020
2017-09-20T13:09:00.285Z,4024
2017-09-20T13:10:00.609Z,4100
2017-09-20T13:10:59.957Z,4420
2017-09-20T13:12:00.605Z,5032
2017-09-20T13:12:59.958Z,4816
2017-09-20T13:14:00.271Z,4936
2017-09-20T13:15:00.271Z,5580
2017-09-20T13:15:59.918Z,5860
2017-09-20T13:16:59.911Z,5740
2017-09-20T13:18:00.254Z,5480
2017-09-20T13:19:00.226Z,5140
2017-09-20T13:20:00.224Z,5080
2017-09-20T13:21:00.230Z,5320
2017-09-20T13:21:59.882Z,5176
2017-09-20T13:23:00.549Z,4896
2017-09-20T13:24:00.230Z,4984
2017-09-20T13:25:00.543Z,5164
2017-09-20T13:25:59.860Z,5236
2017-09-20T13:27:00.510Z,5388
2017-09-20T13:27:59.849Z,5680
2017-09-20T13:29:00.167Z,5904
2017-09-20T13:30:00.166Z,6132
2017-09-20T13:31:00.175Z,6444
2017-09-20T13:32:00.500Z,6268
2017-09-20T13:33:00.152Z,5932
2017-09-20T13:34:00.477Z,5788
2017-09-20T13:35:00.131Z,5400
2017-09-20T13:36:00.152Z,5260
2017-09-20T13:36:59.793Z,5376
2017-09-20T13:38:00.114Z,5620
2017-09-20T13:38:59.785Z,5776
2017-09-20T13:40:00.107Z,6016
2017-09-20T13:41:00.430Z,6176
2017-09-20T13:42:00.759Z,6096
2017-09-20T13:43:00.095Z,6112
2017-09-20T13:44:00.112Z,6284
2017-09-20T13:44:59.753Z,6600
2017-09-20T13:45:59.737Z,6892
2017-09-20T13:47:00.059Z,7120